createdAt,value
2023-09-16T00:01:52.408Z,5.10
2023-09-16T00:04:19.635Z,5.97
2023-09-16T00:06:47.599Z,4.70
2023-09-16T00:09:14.595Z,4.88
2023-09-16T00:11:41.592Z,5.15
2023-09-16T00:14:08.516Z,5.50
2023-09-16T00:16:35.495Z,5.50
2023-09-16T00:19:04.346Z,5.55
2023-09-16T00:21:31.432Z,5.88
2023-09-16T00:24:01.477Z,5.28
2023-09-16T00:26:28.476Z,5.30
2023-09-16T00:28:55.811Z,5.43
2023-09-16T00:31:22.930Z,4.93
2023-09-16T00:33:50.730Z,4.80
2023-09-16T00:36:17.822Z,5.45
2023-09-16T00:38:45.058Z,5.28
2023-09-16T00:41:13.750Z,5.45
2023-09-16T00:43:40.996Z,4.97
2023-09-16T00:46:07.959Z,5.20
2023-09-16T00:48:36.585Z,4.97
2023-09-16T00:51:04.381Z,5.47
2023-09-16T00:53:31.541Z,5.30
2023-09-16T00:55:58.568Z,6.25
2023-09-16T00:58:25.681Z,5.47
2023-09-16T01:00:53.898Z,6.13
2023-09-16T01:03:21.092Z,6.03
2023-09-16T01:05:48.920Z,6.15
2023-09-16T01:08:17.568Z,6.43
2023-09-16T01:10:44.775Z,6.45
2023-09-16T01:13:12.135Z,5.90
2023-09-16T01:15:47.869Z,5.55
2023-09-16T01:18:22.774Z,5.38
2023-09-16T01:20:51.317Z,4.80
2023-09-16T01:23:21.170Z,6.50
2023-09-16T01:25:48.313Z,6.80
2023-09-16T01:28:15.659Z,5.05
2023-09-16T01:30:48.377Z,5.60
2023-09-16T01:33:28.559Z,6.22
2023-09-16T01:36:06.642Z,5.32
2023-09-16T01:38:38.528Z,4.88
2023-09-16T01:41:06.251Z,4.85
2023-09-16T01:43:33.588Z,6.93
2023-09-16T01:46:00.776Z,5.93
2023-09-16T01:48:44.484Z,5.28
2023-09-16T01:51:14.496Z,5.70
2023-09-16T01:53:43.129Z,5.93
2023-09-16T01:56:10.088Z,5.82
2023-09-16T01:58:37.121Z,5.38
2023-09-16T02:01:12.462Z,6.28
2023-09-16T02:03:39.528Z,6.68
2023-09-16T02:06:09.743Z,4.72
2023-09-16T02:08:38.348Z,6.43
2023-09-16T02:11:05.838Z,6.90
2023-09-16T02:13:33.992Z,6.55
2023-09-16T02:16:01.257Z,6.30
2023-09-16T02:18:29.025Z,6.45
2023-09-16T02:20:56.011Z,6.45
2023-09-16T02:23:23.484Z,7.65
2023-09-16T02:25:50.469Z,6.32
2023-09-16T02:28:17.375Z,6.80
2023-09-16T02:30:44.513Z,7.45
2023-09-16T02:33:11.627Z,6.50
2023-09-16T02:35:40.715Z,6.78
2023-09-16T02:38:07.879Z,6.82
2023-09-16T02:40:35.253Z,7.07
2023-09-16T02:43:02.325Z,6.97
2023-09-16T02:45:29.364Z,7.55
2023-09-16T02:47:56.443Z,7.10
2023-09-16T02:50:23.380Z,6.43
2023-09-16T02:52:50.414Z,6.68
2023-09-16T02:55:17.555Z,8.25
2023-09-16T02:57:44.743Z,7.70
2023-09-16T03:00:12.255Z,8.05
2023-09-16T03:02:39.255Z,7.07
2023-09-16T03:05:06.537Z,7.15
2023-09-16T03:07:33.474Z,7.50
2023-09-16T03:10:00.622Z,7.35
2023-09-16T03:12:27.699Z,6.93
2023-09-16T03:14:54.684Z,6.95
2023-09-16T03:17:21.706Z,7.82
2023-09-16T03:19:48.735Z,7.43
2023-09-16T03:22:15.688Z,8.20
2023-09-16T03:24:43.871Z,7.40
2023-09-16T03:27:11.592Z,8.43
2023-09-16T03:29:38.652Z,7.57
2023-09-16T03:32:05.766Z,8.18
2023-09-16T03:34:34.146Z,7.78
2023-09-16T03:37:01.191Z,7.45
2023-09-16T03:39:28.556Z,8.43
2023-09-16T03:41:56.187Z,8.05
2023-09-16T03:44:23.949Z,7.10
2023-09-16T03:46:51.030Z,7.80
2023-09-16T03:49:18.311Z,8.02
2023-09-16T03:51:47.119Z,8.32
2023-09-16T03:54:14.588Z,8.75
2023-09-16T03:56:43.380Z,7.82
2023-09-16T03:59:13.099Z,8.43
2023-09-16T04:01:40.109Z,8.55
2023-09-16T04:04:08.946Z,8.07
2023-09-16T04:06:36.013Z,8.65
2023-09-16T04:09:03.059Z,8.05
2023-09-16T04:11:30.033Z,8.93
2023-09-16T04:13:57.261Z,8.15
2023-09-16T04:16:26.824Z,8.93
2023-09-16T04:18:54.836Z,9.80
2023-09-16T04:21:21.980Z,8.23
2023-09-16T04:23:49.254Z,9.05
2023-09-16T04:26:17.426Z,8.85
2023-09-16T04:28:47.148Z,8.45
2023-09-16T04:31:14.320Z,8.43
2023-09-16T04:33:42.153Z,8.68
2023-09-16T04:36:10.858Z,8.10
2023-09-16T04:38:38.943Z,8.38
2023-09-16T04:41:06.874Z,8.50
2023-09-16T04:43:34.322Z,10.18
2023-09-16T04:46:02.536Z,9.20
2023-09-16T04:48:37.197Z,8.60
2023-09-16T04:51:05.017Z,9.35
2023-09-16T04:53:33.466Z,8.77
2023-09-16T04:56:01.950Z,8.73
2023-09-16T04:58:32.530Z,9.43
2023-09-16T05:01:01.357Z,8.95
2023-09-16T05:03:29.191Z,9.02
2023-09-16T05:05:56.364Z,10.15
2023-09-16T05:08:29.307Z,9.30
2023-09-16T05:10:57.535Z,10.80
2023-09-16T05:13:24.872Z,10.30
2023-09-16T05:15:52.985Z,10.57
2023-09-16T05:18:20.019Z,9.98
2023-09-16T05:20:50.914Z,9.27
2023-09-16T05:23:18.284Z,9.20
2023-09-16T05:25:47.540Z,9.82
2023-09-16T05:28:18.654Z,10.50
2023-09-16T05:30:46.140Z,9.93
2023-09-16T05:33:15.516Z,9.55
2023-09-16T05:35:43.499Z,10.52
2023-09-16T05:38:11.001Z,11.27
2023-09-16T05:40:38.500Z,10.07
2023-09-16T05:43:06.312Z,10.07
2023-09-16T05:45:33.377Z,9.85
2023-09-16T05:48:04.656Z,8.93
2023-09-16T05:50:36.659Z,10.65
2023-09-16T05:53:07.086Z,9.80
2023-09-16T05:55:44.453Z,10.32
2023-09-16T05:58:13.456Z,10.50
2023-09-16T06:00:41.494Z,9.85
2023-09-16T06:03:08.801Z,9.15
2023-09-16T06:05:35.905Z,9.98
2023-09-16T06:08:03.642Z,10.07
2023-09-16T06:10:30.712Z,8.93
2023-09-16T06:12:57.785Z,9.68
2023-09-16T06:15:25.002Z,9.90
2023-09-16T06:17:51.945Z,9.50
2023-09-16T06:20:18.963Z,8.88
2023-09-16T06:22:46.051Z,10.73
2023-09-16T06:25:15.896Z,10.68
2023-09-16T06:27:42.981Z,10.20
2023-09-16T06:30:10.976Z,10.48
2023-09-16T06:32:39.033Z,10.25
2023-09-16T06:35:06.528Z,9.50
2023-09-16T06:37:33.530Z,9.55
2023-09-16T06:40:01.406Z,9.50
2023-09-16T06:42:28.638Z,8.45
2023-09-16T06:44:56.552Z,10.20
2023-09-16T06:47:27.906Z,9.07
2023-09-16T06:49:56.185Z,9.45
2023-09-16T06:52:23.723Z,8.60
2023-09-16T06:54:51.211Z,8.00
2023-09-16T06:57:18.202Z,8.77
2023-09-16T06:59:48.916Z,9.77
2023-09-16T07:02:16.945Z,9.52
2023-09-16T07:04:44.128Z,8.80
2023-09-16T07:07:11.145Z,8.90
2023-09-16T07:09:38.316Z,10.15
2023-09-16T07:12:07.483Z,8.65
2023-09-16T07:14:38.804Z,9.27
2023-09-16T07:17:06.395Z,7.63
2023-09-16T07:19:35.384Z,9.93
2023-09-16T07:22:02.649Z,8.32
2023-09-16T07:24:30.119Z,9.32
2023-09-16T07:26:57.740Z,9.32
2023-09-16T07:29:24.805Z,8.88
2023-09-16T07:31:51.962Z,9.65
2023-09-16T07:34:20.696Z,9.88
2023-09-16T07:36:47.894Z,8.70
2023-09-16T07:39:15.069Z,8.30
2023-09-16T07:41:43.163Z,9.07
2023-09-16T07:44:10.288Z,9.65
2023-09-16T07:46:37.504Z,8.05
2023-09-16T07:49:04.598Z,8.52
2023-09-16T07:51:31.731Z,8.13
2023-09-16T07:53:58.700Z,7.15
2023-09-16T07:56:25.836Z,8.43
2023-09-16T07:58:52.963Z,7.70
2023-09-16T08:01:20.147Z,9.02
2023-09-16T08:03:47.346Z,9.10
2023-09-16T08:06:14.512Z,8.30
2023-09-16T08:08:41.526Z,7.45
2023-09-16T08:11:08.619Z,7.70
2023-09-16T08:13:35.683Z,7.65
2023-09-16T08:16:02.851Z,7.63
2023-09-16T08:18:29.908Z,7.43
2023-09-16T08:20:57.101Z,7.43
2023-09-16T08:23:24.094Z,6.88
2023-09-16T08:25:51.090Z,6.13
2023-09-16T08:28:18.161Z,7.57
2023-09-16T08:30:45.179Z,5.85
2023-09-16T08:33:12.555Z,5.32
2023-09-16T08:35:39.573Z,5.53
2023-09-16T08:38:08.638Z,6.18
2023-09-16T08:40:35.741Z,5.65
2023-09-16T08:43:18.925Z,5.75
2023-09-16T08:45:55.395Z,5.45
2023-09-16T08:48:26.768Z,5.60
2023-09-16T08:50:55.462Z,5.43
2023-09-16T08:53:25.972Z,5.75
2023-09-16T08:55:53.718Z,4.90
2023-09-16T08:58:21.439Z,5.35
2023-09-16T09:00:48.592Z,5.20
2023-09-16T09:03:15.678Z,5.22
2023-09-16T09:05:44.750Z,6.00
2023-09-16T09:08:13.091Z,5.28
2023-09-16T09:10:43.750Z,5.75
2023-09-16T09:13:14.054Z,5.30
2023-09-16T09:15:42.638Z,5.60
2023-09-16T09:18:13.094Z,4.35
2023-09-16T09:20:40.191Z,4.70
2023-09-16T09:23:11.407Z,4.65
2023-09-16T09:25:43.056Z,4.68
2023-09-16T09:28:10.526Z,4.53
2023-09-16T09:30:40.676Z,3.67
2023-09-16T09:33:15.373Z,4.30
2023-09-16T09:35:43.165Z,3.83
2023-09-16T09:38:10.128Z,3.35
2023-09-16T09:40:37.185Z,3.60
2023-09-16T09:43:04.992Z,3.67
2023-09-16T09:45:38.081Z,3.55
2023-09-16T09:48:05.475Z,3.30
2023-09-16T09:50:33.186Z,3.75
2023-09-16T09:53:02.381Z,4.50
2023-09-16T09:55:31.102Z,3.45
2023-09-16T09:57:58.420Z,3.50
2023-09-16T10:00:25.590Z,2.88
2023-09-16T10:05:36.717Z,3.20
2023-09-16T10:08:04.019Z,2.80
2023-09-16T10:10:33.050Z,3.45
2023-09-16T10:13:00.156Z,3.17
2023-09-16T10:15:28.943Z,2.70
2023-09-16T10:17:57.872Z,3.03
2023-09-16T10:20:25.196Z,2.67
2023-09-16T10:22:53.842Z,2.95
2023-09-16T10:25:21.135Z,2.38
2023-09-16T10:28:05.162Z,2.42
2023-09-16T10:30:34.383Z,2.13
2023-09-16T10:33:03.518Z,2.25
2023-09-16T10:35:31.217Z,2.05
2023-09-16T10:38:01.227Z,2.22
2023-09-16T10:40:28.705Z,2.00
2023-09-16T10:42:57.562Z,1.83
2023-09-16T10:45:27.072Z,2.22
2023-09-16T10:47:55.591Z,1.77
2023-09-16T10:50:30.423Z,2.40
2023-09-16T10:53:12.205Z,1.70
2023-09-16T10:55:52.884Z,2.03
2023-09-16T10:58:33.476Z,2.17
2023-09-16T11:01:02.377Z,2.42
2023-09-16T11:03:33.651Z,2.20
2023-09-16T11:06:02.922Z,1.77
2023-09-16T11:08:30.224Z,2.60
2023-09-16T11:10:57.792Z,1.88
2023-09-16T11:13:27.955Z,2.35
2023-09-16T11:15:59.227Z,2.33
2023-09-16T11:18:26.545Z,2.30
2023-09-16T11:20:55.075Z,2.08
2023-09-16T11:23:23.166Z,1.95
2023-09-16T11:25:50.263Z,2.45
2023-09-16T11:28:20.695Z,1.90
2023-09-16T11:30:59.935Z,1.90
2023-09-16T11:33:27.187Z,1.90
2023-09-16T11:36:23.751Z,2.03
2023-09-16T11:39:12.960Z,1.80
2023-09-16T11:41:40.090Z,1.80
2023-09-16T11:44:08.856Z,1.70
2023-09-16T11:46:36.322Z,1.58
2023-09-16T11:49:06.887Z,1.65
2023-09-16T11:51:35.773Z,1.65
2023-09-16T11:54:04.031Z,2.08
2023-09-16T11:56:32.707Z,2.22
2023-09-16T11:59:00.120Z,1.60
2023-09-16T12:01:39.352Z,1.80
2023-09-16T12:04:07.860Z,1.67
2023-09-16T12:06:37.002Z,1.70
2023-09-16T12:09:06.633Z,1.60
2023-09-16T12:11:35.042Z,1.70
2023-09-16T12:14:04.570Z,1.58
2023-09-16T12:16:32.047Z,1.48
2023-09-16T12:18:59.131Z,1.60
2023-09-16T12:21:26.377Z,1.90
2023-09-16T12:23:53.666Z,1.63
2023-09-16T12:26:21.127Z,1.50
2023-09-16T12:28:48.982Z,1.75
2023-09-16T12:31:25.035Z,1.63
2023-09-16T12:33:56.838Z,1.90
2023-09-16T12:36:31.539Z,1.60
2023-09-16T12:39:01.718Z,1.70
2023-09-16T12:41:30.370Z,1.80
2023-09-16T12:43:59.339Z,1.67
2023-09-16T12:46:29.652Z,1.63
2023-09-16T12:48:57.685Z,1.83
2023-09-16T12:51:25.490Z,1.70
2023-09-16T12:53:54.993Z,1.70
2023-09-16T12:56:24.897Z,1.30
2023-09-16T12:58:52.457Z,2.08
2023-09-16T13:01:21.414Z,1.60
2023-09-16T13:03:48.985Z,1.88
2023-09-16T13:06:16.393Z,1.80
2023-09-16T13:08:44.767Z,2.30
2023-09-16T13:11:15.331Z,1.65
2023-09-16T13:13:42.496Z,1.60
2023-09-16T13:16:12.140Z,1.92
2023-09-16T13:18:40.713Z,1.92
2023-09-16T13:21:08.255Z,1.73
2023-09-16T13:23:35.692Z,1.60
2023-09-16T13:26:12.135Z,1.58
2023-09-16T13:28:39.556Z,1.77
2023-09-16T13:31:07.037Z,1.98
2023-09-16T13:33:50.899Z,2.22
2023-09-16T13:36:18.189Z,1.70
2023-09-16T13:38:46.506Z,1.80
2023-09-16T13:41:13.716Z,1.65
2023-09-16T13:43:40.689Z,2.15
2023-09-16T13:46:07.868Z,2.03
2023-09-16T13:48:35.498Z,1.65
2023-09-16T13:51:05.554Z,1.80
2023-09-16T13:53:32.658Z,1.85
2023-09-16T13:56:00.258Z,2.45
2023-09-16T13:58:27.848Z,2.20
2023-09-16T14:00:55.748Z,2.05
2023-09-16T14:03:23.074Z,2.22
2023-09-16T14:05:50.338Z,1.80
2023-09-16T14:08:17.446Z,2.08
2023-09-16T14:10:44.614Z,2.00
2023-09-16T14:13:11.845Z,2.28
2023-09-16T14:15:40.454Z,2.38
2023-09-16T14:18:09.460Z,1.98
2023-09-16T14:20:37.516Z,2.42
2023-09-16T14:23:06.721Z,2.33
2023-09-16T14:25:35.451Z,2.80
2023-09-16T14:28:06.453Z,1.98
2023-09-16T14:30:33.604Z,2.20
2023-09-16T14:33:00.849Z,2.30
2023-09-16T14:35:35.734Z,2.47
2023-09-16T14:38:05.275Z,2.67
2023-09-16T14:40:35.651Z,2.50
2023-09-16T14:43:03.897Z,2.30
2023-09-16T14:45:31.102Z,2.45
2023-09-16T14:47:58.553Z,2.47
2023-09-16T14:50:26.057Z,2.20
2023-09-16T14:52:53.184Z,2.80
2023-09-16T14:55:20.609Z,2.20
2023-09-16T14:57:48.830Z,2.63
2023-09-16T15:00:15.975Z,2.50
2023-09-16T15:02:43.794Z,2.00
2023-09-16T15:05:13.372Z,2.38
2023-09-16T15:07:40.755Z,2.10
2023-09-16T15:10:08.911Z,2.20
2023-09-16T15:12:36.265Z,2.20
2023-09-16T15:15:03.412Z,2.40
2023-09-16T15:17:30.481Z,2.22
2023-09-16T15:19:58.534Z,2.03
2023-09-16T15:22:26.523Z,2.28
2023-09-16T15:24:53.773Z,2.40
2023-09-16T15:27:21.580Z,1.77
2023-09-16T15:29:48.782Z,2.30
2023-09-16T15:32:39.013Z,2.10
2023-09-16T15:35:03.350Z,1.75
2023-09-16T15:37:31.845Z,2.30
2023-09-16T15:39:58.969Z,1.80
2023-09-16T15:42:26.234Z,1.65
2023-09-16T15:44:56.052Z,2.30
2023-09-16T15:47:23.439Z,2.35
2023-09-16T15:49:50.519Z,1.95
2023-09-16T15:52:18.396Z,2.08
2023-09-16T15:54:45.468Z,1.80
2023-09-16T15:57:12.540Z,1.77
2023-09-16T15:59:39.790Z,2.45
2023-09-16T16:02:07.519Z,2.05
2023-09-16T16:04:34.982Z,1.88
2023-09-16T16:07:02.074Z,2.20
2023-09-16T16:09:29.175Z,2.10
2023-09-16T16:11:56.294Z,1.92
2023-09-16T16:14:23.380Z,1.90
2023-09-16T16:16:50.722Z,2.03
2023-09-16T16:19:18.298Z,2.60
2023-09-16T16:21:46.592Z,1.77
2023-09-16T16:24:13.641Z,2.15
2023-09-16T16:26:40.626Z,2.10
2023-09-16T16:29:08.291Z,2.05
2023-09-16T16:31:35.364Z,1.98
2023-09-16T16:34:02.508Z,2.50
2023-09-16T16:36:29.601Z,1.90
2023-09-16T16:38:57.445Z,2.20
2023-09-16T16:41:24.882Z,2.53
2023-09-16T16:43:52.405Z,1.85
2023-09-16T16:46:19.986Z,2.33
2023-09-16T16:48:47.183Z,2.17
2023-09-16T16:51:14.976Z,2.10
2023-09-16T16:53:42.055Z,2.30
2023-09-16T16:56:09.231Z,3.00
2023-09-16T16:58:37.027Z,2.35
2023-09-16T17:01:04.420Z,2.40
2023-09-16T17:03:31.592Z,2.50
2023-09-16T17:05:59.109Z,2.65
2023-09-16T17:08:26.234Z,3.58
2023-09-16T17:10:53.467Z,2.72
2023-09-16T17:13:20.575Z,2.97
2023-09-16T17:15:47.799Z,2.95
2023-09-16T17:18:14.979Z,3.22
2023-09-16T17:20:42.169Z,2.22
2023-09-16T17:23:09.303Z,2.58
2023-09-16T17:25:38.563Z,2.65
2023-09-16T17:28:08.737Z,2.65
2023-09-16T17:30:35.991Z,2.90
2023-09-16T17:33:04.696Z,2.95
2023-09-16T17:35:32.176Z,3.17
2023-09-16T17:37:59.295Z,2.10
2023-09-16T17:40:26.346Z,2.38
2023-09-16T17:42:53.421Z,3.08
2023-09-16T17:45:20.440Z,2.78
2023-09-16T17:47:47.681Z,3.20
2023-09-16T17:50:15.196Z,2.97
2023-09-16T17:52:42.619Z,2.95
2023-09-16T17:55:10.166Z,2.78
2023-09-16T17:57:37.277Z,2.80
2023-09-16T18:00:04.738Z,3.22
2023-09-16T18:02:40.681Z,3.05
2023-09-16T18:05:08.187Z,2.47
2023-09-16T18:07:36.177Z,3.22
2023-09-16T18:10:04.808Z,3.17
2023-09-16T18:12:31.959Z,2.45
2023-09-16T18:14:59.171Z,3.10
2023-09-16T18:17:26.713Z,3.60
2023-09-16T18:19:53.735Z,3.63
2023-09-16T18:22:20.929Z,3.03
2023-09-16T18:24:47.986Z,2.70
2023-09-16T18:27:15.029Z,3.10
2023-09-16T18:29:42.065Z,3.67
2023-09-16T18:32:09.195Z,3.42
2023-09-16T18:34:36.378Z,3.55
2023-09-16T18:37:04.644Z,3.53
2023-09-16T18:39:32.047Z,3.20
2023-09-16T18:41:59.127Z,3.22
2023-09-16T18:44:27.546Z,3.10
2023-09-16T18:46:56.618Z,4.03
2023-09-16T18:49:24.371Z,4.00
2023-09-16T18:51:51.673Z,3.88
2023-09-16T18:54:18.739Z,3.60
2023-09-16T18:56:45.859Z,3.53
2023-09-16T18:59:15.945Z,3.15
2023-09-16T19:01:43.698Z,3.45
2023-09-16T19:04:10.885Z,4.03
2023-09-16T19:06:37.903Z,3.85
2023-09-16T19:09:05.644Z,4.22
2023-09-16T19:11:32.776Z,3.10
2023-09-16T19:13:59.879Z,3.47
2023-09-16T19:16:26.985Z,3.65
2023-09-16T19:18:54.112Z,3.50
2023-09-16T19:21:21.340Z,3.75
2023-09-16T19:23:49.485Z,3.70
2023-09-16T19:26:16.783Z,4.05
2023-09-16T19:28:43.839Z,3.90
2023-09-16T19:31:10.909Z,4.20
2023-09-16T19:33:38.029Z,4.13
2023-09-16T19:36:05.400Z,4.07
2023-09-16T19:38:42.104Z,4.13
2023-09-16T19:41:10.044Z,4.53
2023-09-16T19:43:37.937Z,4.95
2023-09-16T19:46:09.717Z,4.82
2023-09-16T19:48:37.588Z,4.50
2023-09-16T19:51:05.195Z,4.20
2023-09-16T19:53:33.690Z,3.97
2023-09-16T19:56:01.204Z,4.28
2023-09-16T19:58:28.767Z,4.15
2023-09-16T20:01:01.503Z,3.95
2023-09-16T20:03:30.406Z,3.80
2023-09-16T20:06:04.116Z,3.60
2023-09-16T20:08:31.154Z,4.25
2023-09-16T20:10:58.411Z,3.45
2023-09-16T20:13:25.832Z,4.25
2023-09-16T20:15:52.938Z,3.92
2023-09-16T20:18:20.009Z,4.00
2023-09-16T20:20:47.450Z,3.92
2023-09-16T20:23:14.457Z,3.63
2023-09-16T20:25:45.251Z,4.00
2023-09-16T20:28:12.752Z,4.30
2023-09-16T20:30:39.802Z,4.30
2023-09-16T20:33:07.189Z,4.60
2023-09-16T20:35:34.274Z,4.78
2023-09-16T20:38:01.992Z,5.30
2023-09-16T20:40:29.285Z,4.50
2023-09-16T20:42:56.618Z,4.13
2023-09-16T20:45:24.076Z,4.55
2023-09-16T20:47:51.247Z,4.25
2023-09-16T20:50:19.964Z,4.57
2023-09-16T20:52:46.947Z,4.75
2023-09-16T20:55:14.063Z,3.90
2023-09-16T20:57:41.142Z,4.13
2023-09-16T21:00:10.626Z,3.92
2023-09-16T21:02:37.891Z,4.03
2023-09-16T21:05:05.489Z,4.05
2023-09-16T21:07:35.800Z,4.47
2023-09-16T21:10:05.087Z,3.55
2023-09-16T21:12:32.154Z,3.88
2023-09-16T21:14:59.257Z,3.72
2023-09-16T21:17:26.386Z,4.00
2023-09-16T21:19:53.486Z,4.10
2023-09-16T21:22:20.528Z,4.00
2023-09-16T21:24:49.540Z,4.35
2023-09-16T21:27:16.804Z,4.47
2023-09-16T21:29:43.790Z,4.05
2023-09-16T21:32:12.504Z,4.10
2023-09-16T21:34:39.682Z,4.25
2023-09-16T21:37:06.841Z,4.78
2023-09-16T21:39:37.325Z,4.20
2023-09-16T21:42:05.737Z,3.78
2023-09-16T21:44:33.623Z,5.05
2023-09-16T21:47:00.923Z,4.30
2023-09-16T21:49:28.105Z,4.05
2023-09-16T21:51:55.266Z,4.13
2023-09-16T21:54:22.634Z,4.30
2023-09-16T21:56:49.639Z,4.57
2023-09-16T21:59:16.687Z,4.10
2023-09-16T22:01:43.997Z,5.40
2023-09-16T22:04:12.125Z,5.28
2023-09-16T22:06:39.284Z,4.65
2023-09-16T22:09:06.344Z,5.35
2023-09-16T22:11:33.435Z,4.35
2023-09-16T22:14:00.514Z,5.40
2023-09-16T22:16:30.447Z,5.60
2023-09-16T22:18:57.605Z,5.32
2023-09-16T22:21:24.682Z,4.90
2023-09-16T22:23:51.928Z,5.55
2023-09-16T22:26:19.274Z,5.63
2023-09-16T22:28:46.413Z,5.43
2023-09-16T22:31:16.957Z,5.57
2023-09-16T22:33:44.480Z,5.65
2023-09-16T22:36:11.597Z,5.47
2023-09-16T22:38:38.681Z,5.70
2023-09-16T22:41:05.990Z,5.53
2023-09-16T22:43:33.067Z,6.03
2023-09-16T22:46:00.059Z,5.88
2023-09-16T22:48:27.083Z,5.45
2023-09-16T22:50:54.231Z,5.07
2023-09-16T22:53:21.294Z,5.72
2023-09-16T22:55:48.359Z,5.93
2023-09-16T22:58:15.447Z,5.65
2023-09-16T23:00:42.617Z,5.47
2023-09-16T23:03:09.861Z,5.38
2023-09-16T23:05:37.043Z,5.85
2023-09-16T23:08:04.576Z,5.85
2023-09-16T23:10:31.883Z,4.97
2023-09-16T23:12:58.963Z,5.25
2023-09-16T23:15:26.134Z,6.50
2023-09-16T23:17:54.408Z,6.20
2023-09-16T23:20:21.768Z,6.30
2023-09-16T23:22:48.779Z,5.57
2023-09-16T23:25:16.514Z,5.45
2023-09-16T23:27:43.657Z,5.80
2023-09-16T23:30:11.215Z,5.93
2023-09-16T23:32:38.243Z,5.75
2023-09-16T23:35:05.565Z,6.03
2023-09-16T23:37:32.986Z,5.82
2023-09-16T23:40:00.387Z,6.28
2023-09-16T23:42:27.743Z,6.03
2023-09-16T23:44:55.082Z,5.70
2023-09-16T23:47:22.617Z,5.95
2023-09-16T23:49:49.718Z,5.70
2023-09-16T23:52:16.790Z,5.75
2023-09-16T23:54:43.843Z,6.32
2023-09-16T23:57:10.826Z,5.55
2023-09-16T23:59:37.783Z,5.25
